Time;durP1;ratioP1;P1;durP2;ratioP2;P2;SDS_P1;SDS_P2;PMS_P1;PMS_P2;Temp;Humidity;BMP_temperature;BMP_pressure;BME280_temperature;BME280_humidity;BME280_pressure;Samples;Min_cycle;Max_cycle;Signal;HPM_P1;HPM_P2
2022/01/16 00:04:24;;;;;;;13.32;11.98;;;;;;;;;;5013556;28;20042;-80
2022/01/16 00:06:50;;;;;;;12.15;10.73;;;;;;;;;;4997135;28;20036;-80
2022/01/16 00:09:15;;;;;;;14.82;12.07;;;;;;;;;;4997546;28;20033;-80
2022/01/16 00:11:42;;;;;;;13.05;11.68;;;;;;;;;;4997220;28;20030;-79
2022/01/16 00:14:07;;;;;;;13.25;11.95;;;;;;;;;;4998366;28;20061;-79
2022/01/16 00:16:33;;;;;;;12.80;11.50;;;;;;;;;;5016656;28;20052;-80
2022/01/16 00:18:58;;;;;;;13.00;10.98;;;;;;;;;;5032833;28;20037;-80
2022/01/16 00:21:29;;;;;;;13.40;11.50;;;;;;;;;;5033036;28;20033;-79
2022/01/16 00:23:54;;;;;;;13.07;11.75;;;;;;;;;;5032564;28;20553;-80
2022/01/16 00:26:21;;;;;;;12.90;11.38;;;;;;;;;;5016283;28;20030;-80
2022/01/16 00:28:47;;;;;;;12.80;11.50;;;;;;;;;;5049347;28;20060;-79
2022/01/16 00:31:12;;;;;;;12.70;11.40;;;;;;;;;;5000250;28;20084;-80
2022/01/16 00:33:42;;;;;;;12.48;11.18;;;;;;;;;;4999750;28;20033;-79
2022/01/16 00:36:08;;;;;;;12.15;10.85;;;;;;;;;;5016117;28;20084;-80
2022/01/16 00:38:34;;;;;;;12.80;11.50;;;;;;;;;;5032780;28;20052;-80
2022/01/16 00:41:00;;;;;;;11.38;10.15;;;;;;;;;;5033081;28;20383;-79
2022/01/16 00:43:25;;;;;;;12.88;10.68;;;;;;;;;;5048956;28;20033;-80
2022/01/16 00:45:50;;;;;;;11.98;10.75;;;;;;;;;;5000139;28;20034;-79
2022/01/16 00:48:16;;;;;;;11.68;10.15;;;;;;;;;;4983213;28;20069;-80
2022/01/16 00:50:42;;;;;;;11.32;9.68;;;;;;;;;;5016024;28;20442;-80
2022/01/16 00:53:08;;;;;;;12.25;10.57;;;;;;;;;;4999672;28;20056;-80
2022/01/16 00:55:33;;;;;;;12.40;10.65;;;;;;;;;;4983717;28;20111;-80
2022/01/16 00:57:59;;;;;;;11.35;9.95;;;;;;;;;;4999806;28;20025;-79
2022/01/16 01:00:25;;;;;;;11.35;9.68;;;;;;;;;;4999591;28;20495;-80
2022/01/16 01:02:53;;;;;;;11.10;10.00;;;;;;;;;;5031789;28;20044;-81
2022/01/16 01:05:19;;;;;;;10.88;9.55;;;;;;;;;;5016263;28;20095;-80
2022/01/16 01:07:45;;;;;;;9.27;8.27;;;;;;;;;;5015549;28;20029;-80
2022/01/16 01:10:11;;;;;;;10.35;9.05;;;;;;;;;;4998757;28;20124;-80
2022/01/16 01:12:57;;;;;;;10.10;8.77;;;;;;;;;;4999503;28;20029;-80
2022/01/16 01:15:29;;;;;;;11.45;8.77;;;;;;;;;;5018428;28;20505;-80
2022/01/16 01:17:54;;;;;;;11.25;10.07;;;;;;;;;;4999031;28;20068;-80
2022/01/16 01:20:21;;;;;;;9.70;8.70;;;;;;;;;;5016070;28;20120;-80
2022/01/16 01:22:48;;;;;;;10.07;8.95;;;;;;;;;;5015864;28;20037;-81
2022/01/16 01:25:14;;;;;;;9.75;8.73;;;;;;;;;;5032193;28;20041;-80
2022/01/16 01:27:41;;;;;;;12.40;9.45;;;;;;;;;;5015469;28;20021;-80
2022/01/16 01:30:09;;;;;;;10.00;8.25;;;;;;;;;;5015693;28;20084;-80
2022/01/16 01:32:37;;;;;;;10.15;8.52;;;;;;;;;;4998832;28;20035;-80
2022/01/16 01:35:04;;;;;;;9.95;8.45;;;;;;;;;;4999294;28;20037;-80
2022/01/16 01:37:29;;;;;;;9.60;8.60;;;;;;;;;;5015473;28;20034;-80
2022/01/16 01:39:55;;;;;;;9.18;8.20;;;;;;;;;;5015350;28;20043;-80
2022/01/16 01:42:20;;;;;;;9.02;7.72;;;;;;;;;;4998966;28;20052;-81
2022/01/16 01:52:59;;;;;;;9.63;8.35;;;;;;;;;;4997768;28;20029;-80
2022/01/16 01:55:25;;;;;;;8.27;7.47;;;;;;;;;;4979023;28;20395;-80
2022/01/16 01:57:51;;;;;;;8.80;7.80;;;;;;;;;;4963259;28;20034;-80
2022/01/16 02:00:18;;;;;;;8.48;7.40;;;;;;;;;;4989933;28;20037;-80
2022/01/16 02:05:33;;;;;;;9.27;8.27;;;;;;;;;;5017438;28;20033;-80
2022/01/16 02:07:58;;;;;;;10.32;8.40;;;;;;;;;;5031027;28;20045;-80
2022/01/16 02:10:25;;;;;;;8.70;7.80;;;;;;;;;;5014853;28;20056;-80
2022/01/16 02:12:56;;;;;;;9.13;7.32;;;;;;;;;;5014218;28;20094;-80
2022/01/16 02:29:13;;;;;;;9.30;7.60;;;;;;;;;;5016690;28;20038;-80
2022/01/16 02:31:37;;;;;;;8.73;7.28;;;;;;;;;;5030412;28;20034;-81
2022/01/16 02:36:49;;;;;;;8.40;7.50;;;;;;;;;;5031147;28;20033;-80
2022/01/16 02:39:16;;;;;;;9.23;7.72;;;;;;;;;;5014798;28;20021;-80
2022/01/16 02:41:42;;;;;;;7.90;6.88;;;;;;;;;;4997762;28;20033;-80
2022/01/16 02:46:46;;;;;;;9.43;7.50;;;;;;;;;;5030331;28;20034;-80
2022/01/16 02:49:20;;;;;;;7.47;6.65;;;;;;;;;;5030429;28;20036;-80
2022/01/16 02:51:45;;;;;;;9.07;7.28;;;;;;;;;;5014251;28;20080;-80
2022/01/16 02:54:11;;;;;;;8.85;6.85;;;;;;;;;;5030378;28;20095;-80
2022/01/16 02:56:38;;;;;;;10.63;8.15;;;;;;;;;;5029852;28;20025;-80
2022/01/16 02:59:04;;;;;;;8.32;6.95;;;;;;;;;;4997811;28;20025;-80
2022/01/16 03:01:29;;;;;;;8.18;6.93;;;;;;;;;;5001353;28;20063;-80
2022/01/16 03:03:55;;;;;;;8.75;6.57;;;;;;;;;;5033605;28;20109;-80
2022/01/16 03:06:20;;;;;;;9.40;7.65;;;;;;;;;;5033797;28;20356;-80
2022/01/16 03:08:45;;;;;;;9.00;7.40;;;;;;;;;;5033599;28;20056;-80
2022/01/16 03:13:47;;;;;;;7.88;6.88;;;;;;;;;;5029848;28;20116;-80
2022/01/16 03:16:13;;;;;;;8.98;7.20;;;;;;;;;;5030016;28;20428;-80
2022/01/16 03:24:07;;;;;;;8.63;7.50;;;;;;;;;;5030217;28;20021;-80
2022/01/16 03:26:32;;;;;;;8.05;6.53;;;;;;;;;;4996825;28;20449;-80
2022/01/16 03:28:58;;;;;;;9.90;7.68;;;;;;;;;;4997556;28;20034;-80
2022/01/16 03:31:23;;;;;;;8.82;7.03;;;;;;;;;;5013854;28;20115;-79
2022/01/16 03:33:49;;;;;;;8.35;7.22;;;;;;;;;;5028845;28;20037;-79
2022/01/16 03:36:14;;;;;;;7.57;6.43;;;;;;;;;;5049536;28;20052;-80
2022/01/16 03:38:39;;;;;;;9.18;7.07;;;;;;;;;;5033589;28;20034;-80
2022/01/16 03:41:05;;;;;;;9.77;8.18;;;;;;;;;;5017407;28;20044;-79
2022/01/16 03:43:30;;;;;;;8.73;7.10;;;;;;;;;;5017638;28;20069;-79
2022/01/16 03:45:56;;;;;;;8.52;7.13;;;;;;;;;;5017308;28;20037;-80
2022/01/16 03:48:21;;;;;;;7.90;7.10;;;;;;;;;;5017096;28;20025;-80
2022/01/16 03:50:46;;;;;;;9.05;8.15;;;;;;;;;;5033373;28;20033;-80
2022/01/16 03:53:12;;;;;;;9.07;8.07;;;;;;;;;;5017009;28;20052;-79
2022/01/16 03:55:37;;;;;;;8.60;6.95;;;;;;;;;;5016935;28;20775;-80
2022/01/16 03:58:03;;;;;;;7.95;6.85;;;;;;;;;;5000506;28;20419;-79
2022/01/16 04:00:29;;;;;;;9.02;7.38;;;;;;;;;;5017158;28;20041;-79
2022/01/16 04:02:54;;;;;;;9.15;7.55;;;;;;;;;;5016657;28;20032;-80
2022/01/16 04:05:20;;;;;;;9.48;6.75;;;;;;;;;;5009304;28;20030;-79
2022/01/16 04:07:46;;;;;;;9.35;7.57;;;;;;;;;;5000664;28;20033;-80
2022/01/16 04:10:12;;;;;;;8.93;7.15;;;;;;;;;;5000528;28;20037;-80
2022/01/16 04:12:39;;;;;;;7.53;6.57;;;;;;;;;;4984198;28;20136;-79
2022/01/16 04:17:39;;;;;;;8.77;6.82;;;;;;;;;;5017525;28;20457;-79
2022/01/16 04:20:05;;;;;;;8.55;7.65;;;;;;;;;;5000163;28;20046;-80
2022/01/16 04:22:31;;;;;;;9.23;7.57;;;;;;;;;;5016589;28;20029;-79
2022/01/16 04:24:56;;;;;;;10.40;7.72;;;;;;;;;;5032926;28;20033;-79
2022/01/16 04:27:22;;;;;;;9.00;7.55;;;;;;;;;;5016236;28;20033;-80
2022/01/16 04:29:47;;;;;;;8.75;7.32;;;;;;;;;;5033146;28;20033;-80
2022/01/16 04:32:13;;;;;;;9.15;6.75;;;;;;;;;;5016516;28;20041;-79
2022/01/16 04:34:38;;;;;;;9.05;7.25;;;;;;;;;;5016553;28;20033;-80
2022/01/16 04:37:04;;;;;;;9.38;6.95;;;;;;;;;;5032979;28;20052;-79
2022/01/16 04:39:35;;;;;;;8.82;7.40;;;;;;;;;;5049164;28;20038;-80
2022/01/16 04:44:45;;;;;;;9.05;7.68;;;;;;;;;;5033124;28;20029;-80
2022/01/16 04:47:11;;;;;;;9.13;7.20;;;;;;;;;;5015562;28;20052;-80
2022/01/16 04:49:36;;;;;;;8.32;6.97;;;;;;;;;;4999762;28;20083;-80
2022/01/16 04:52:02;;;;;;;10.40;7.78;;;;;;;;;;5016268;28;20030;-80
2022/01/16 04:54:28;;;;;;;7.75;6.65;;;;;;;;;;5015796;28;20029;-80
2022/01/16 04:56:53;;;;;;;9.65;7.72;;;;;;;;;;4999765;28;20430;-80
2022/01/16 04:59:19;;;;;;;10.52;7.90;;;;;;;;;;5016248;28;20037;-80
2022/01/16 05:01:44;;;;;;;8.77;6.90;;;;;;;;;;4979627;28;20113;-79
2022/01/16 05:04:10;;;;;;;9.45;7.28;;;;;;;;;;4980137;28;20056;-79
2022/01/16 05:06:35;;;;;;;8.43;7.15;;;;;;;;;;4996330;28;20033;-80
2022/01/16 05:09:01;;;;;;;9.60;7.47;;;;;;;;;;4995877;28;20044;-80
2022/01/16 05:11:27;;;;;;;9.30;7.55;;;;;;;;;;4980301;28;20087;-80
2022/01/16 05:16:38;;;;;;;8.43;7.50;;;;;;;;;;5032666;28;20112;-80
2022/01/16 05:19:06;;;;;;;8.70;7.20;;;;;;;;;;5018098;28;20041;-79
2022/01/16 05:21:31;;;;;;;8.35;6.75;;;;;;;;;;5031656;28;20132;-80
2022/01/16 05:23:57;;;;;;;9.23;7.45;;;;;;;;;;4998717;28;20025;-80
2022/01/16 05:26:27;;;;;;;8.25;6.90;;;;;;;;;;5031865;28;20029;-80
2022/01/16 05:28:53;;;;;;;9.52;7.38;;;;;;;;;;4999517;28;20116;-80
2022/01/16 05:31:18;;;;;;;7.95;6.82;;;;;;;;;;5015940;28;20037;-80
2022/01/16 05:33:44;;;;;;;9.68;7.43;;;;;;;;;;5014857;28;20488;-79
2022/01/16 05:36:09;;;;;;;8.45;7.53;;;;;;;;;;5031543;28;20041;-79
2022/01/16 05:38:35;;;;;;;8.63;7.13;;;;;;;;;;5048164;28;20487;-80
2022/01/16 05:41:00;;;;;;;9.43;7.10;;;;;;;;;;5031770;28;20029;-79
2022/01/16 05:43:26;;;;;;;8.88;7.78;;;;;;;;;;5047979;28;20099;-79
2022/01/16 05:45:52;;;;;;;9.23;7.18;;;;;;;;;;4999031;28;20099;-79
2022/01/16 05:48:17;;;;;;;8.88;6.63;;;;;;;;;;5014791;28;20021;-79
2022/01/16 05:50:43;;;;;;;8.73;7.07;;;;;;;;;;4998620;28;20033;-79
2022/01/16 05:53:08;;;;;;;9.23;6.95;;;;;;;;;;5014462;28;20491;-79
2022/01/16 05:55:36;;;;;;;9.40;7.75;;;;;;;;;;4998358;28;20045;-80
2022/01/16 05:58:08;;;;;;;7.95;6.55;;;;;;;;;;5014842;28;20029;-79
2022/01/16 06:00:34;;;;;;;9.13;7.07;;;;;;;;;;5014940;28;20037;-79
2022/01/16 06:02:59;;;;;;;9.52;7.53;;;;;;;;;;5014362;28;20059;-79
2022/01/16 06:05:25;;;;;;;9.35;7.75;;;;;;;;;;5014344;28;20037;-78
2022/01/16 06:07:54;;;;;;;8.95;7.18;;;;;;;;;;5030865;28;20043;-79
2022/01/16 06:10:19;;;;;;;8.27;6.65;;;;;;;;;;5014518;28;20499;-79
2022/01/16 06:12:45;;;;;;;10.50;7.32;;;;;;;;;;5031202;28;20099;-80
2022/01/16 06:15:11;;;;;;;9.45;6.80;;;;;;;;;;5031444;28;20048;-79
2022/01/16 06:17:37;;;;;;;9.50;6.82;;;;;;;;;;5014197;28;20026;-79
2022/01/16 06:20:03;;;;;;;8.52;6.97;;;;;;;;;;5031286;28;20717;-80
2022/01/16 06:22:29;;;;;;;9.60;6.93;;;;;;;;;;5047129;28;20033;-79
2022/01/16 06:24:54;;;;;;;8.98;7.47;;;;;;;;;;5030915;28;20037;-79
2022/01/16 06:27:20;;;;;;;10.82;7.95;;;;;;;;;;5014168;28;20060;-79
2022/01/16 06:29:45;;;;;;;11.00;7.57;;;;;;;;;;5014357;28;20387;-79
2022/01/16 06:32:11;;;;;;;9.10;7.00;;;;;;;;;;5030518;28;20056;-79
2022/01/16 06:34:36;;;;;;;8.23;6.97;;;;;;;;;;5026545;28;20041;-79
2022/01/16 06:37:02;;;;;;;9.98;7.63;;;;;;;;;;4998167;28;20032;-79
2022/01/16 06:39:29;;;;;;;8.65;7.13;;;;;;;;;;5030913;28;20148;-79
2022/01/16 06:41:55;;;;;;;8.98;7.00;;;;;;;;;;5014539;28;20418;-79
2022/01/16 06:44:20;;;;;;;10.35;7.45;;;;;;;;;;5014642;28;20083;-79
2022/01/16 06:46:46;;;;;;;8.88;7.53;;;;;;;;;;5011735;28;20041;-79
2022/01/16 06:49:12;;;;;;;9.60;7.05;;;;;;;;;;5010874;28;20037;-79
2022/01/16 06:51:38;;;;;;;10.23;7.50;;;;;;;;;;5022270;28;20496;-79
2022/01/16 06:54:03;;;;;;;9.63;7.53;;;;;;;;;;5026919;28;20037;-78
2022/01/16 06:56:29;;;;;;;10.13;7.50;;;;;;;;;;5001066;28;20037;-79
2022/01/16 06:58:55;;;;;;;9.43;7.40;;;;;;;;;;4997838;28;20033;-79
2022/01/16 07:01:21;;;;;;;10.07;7.63;;;;;;;;;;5012322;28;20369;-79
2022/01/16 07:03:46;;;;;;;10.95;7.60;;;;;;;;;;4998077;28;20042;-79
2022/01/16 07:06:11;;;;;;;8.93;7.45;;;;;;;;;;4993731;28;20096;-79
2022/01/16 07:08:37;;;;;;;9.80;7.72;;;;;;;;;;4989057;28;20022;-79
2022/01/16 07:11:03;;;;;;;10.02;8.38;;;;;;;;;;5034248;28;20084;-79
2022/01/16 07:13:28;;;;;;;9.73;7.93;;;;;;;;;;5033995;28;20101;-78
2022/01/16 07:15:54;;;;;;;9.60;7.45;;;;;;;;;;5006753;28;20063;-78
2022/01/16 07:18:20;;;;;;;13.13;8.40;;;;;;;;;;5033717;28;20033;-78
2022/01/16 07:20:46;;;;;;;9.55;7.18;;;;;;;;;;5017663;28;20038;-78
2022/01/16 07:23:12;;;;;;;9.82;7.72;;;;;;;;;;5017573;28;20026;-79
2022/01/16 07:25:38;;;;;;;8.70;6.68;;;;;;;;;;5033948;28;20419;-79
2022/01/16 07:28:04;;;;;;;11.63;9.20;;;;;;;;;;5050934;28;20095;-80
2022/01/16 07:30:29;;;;;;;9.38;7.57;;;;;;;;;;5034095;28;20029;-79
2022/01/16 07:32:55;;;;;;;9.90;7.25;;;;;;;;;;5050028;28;20427;-78
2022/01/16 07:35:20;;;;;;;10.75;7.95;;;;;;;;;;5030276;28;20083;-79
2022/01/16 07:37:47;;;;;;;11.85;8.38;;;;;;;;;;5033414;28;20029;-79
2022/01/16 07:40:13;;;;;;;9.45;7.13;;;;;;;;;;5034136;28;20034;-78
2022/01/16 07:42:39;;;;;;;12.15;8.93;;;;;;;;;;5017339;28;20029;-80
2022/01/16 07:45:04;;;;;;;10.35;8.10;;;;;;;;;;5017104;28;20406;-79
2022/01/16 07:47:30;;;;;;;10.80;8.05;;;;;;;;;;5016606;28;20029;-79
2022/01/16 07:49:55;;;;;;;10.65;7.22;;;;;;;;;;5017396;28;20041;-79
2022/01/16 07:52:21;;;;;;;11.68;8.45;;;;;;;;;;5027298;28;20041;-78
2022/01/16 07:54:46;;;;;;;14.90;8.73;;;;;;;;;;4998488;28;20038;-78
2022/01/16 07:57:13;;;;;;;12.73;8.13;;;;;;;;;;5049391;28;20495;-79
2022/01/16 07:59:39;;;;;;;41.00;25.90;;;;;;;;;;5017099;28;20055;-79
2022/01/16 08:02:05;;;;;;;43.13;24.58;;;;;;;;;;5013080;28;20038;-79
2022/01/16 08:04:30;;;;;;;34.67;21.05;;;;;;;;;;4997176;28;20030;-78
2022/01/16 08:06:56;;;;;;;38.28;19.15;;;;;;;;;;4992127;28;20479;-78
2022/01/16 08:09:21;;;;;;;27.58;17.80;;;;;;;;;;5016558;28;20041;-77
2022/01/16 08:11:48;;;;;;;29.50;17.55;;;;;;;;;;5016798;28;20055;-80
2022/01/16 08:14:13;;;;;;;25.35;17.42;;;;;;;;;;5000141;28;20079;-80
2022/01/16 08:16:39;;;;;;;27.88;16.63;;;;;;;;;;5016245;28;20037;-80
2022/01/16 08:19:04;;;;;;;26.88;16.65;;;;;;;;;;4983652;28;20535;-79
2022/01/16 08:21:30;;;;;;;30.63;19.67;;;;;;;;;;5000710;28;20041;-80
2022/01/16 08:23:55;;;;;;;50.80;31.42;;;;;;;;;;5014007;28;20055;-80
2022/01/16 08:26:21;;;;;;;52.80;33.72;;;;;;;;;;5015827;28;20025;-80
2022/01/16 08:28:46;;;;;;;47.70;31.25;;;;;;;;;;5000394;28;20035;-80
2022/01/16 08:31:12;;;;;;;44.60;28.77;;;;;;;;;;5016107;28;20149;-80
2022/01/16 08:33:38;;;;;;;41.70;28.30;;;;;;;;;;5016401;28;20040;-79
2022/01/16 08:36:04;;;;;;;42.88;28.98;;;;;;;;;;5015820;28;20234;-80
2022/01/16 08:38:32;;;;;;;43.40;29.58;;;;;;;;;;5013824;28;20040;-78
2022/01/16 08:40:59;;;;;;;41.13;29.05;;;;;;;;;;5013941;28;20030;-78
2022/01/16 08:43:24;;;;;;;42.40;26.70;;;;;;;;;;5013012;28;20133;-78
2022/01/16 08:45:50;;;;;;;38.65;26.42;;;;;;;;;;4996510;28;20029;-78
2022/01/16 08:48:15;;;;;;;35.80;27.45;;;;;;;;;;5012730;28;20034;-81
2022/01/16 08:50:41;;;;;;;38.35;25.30;;;;;;;;;;5019825;28;20044;-80
2022/01/16 08:53:07;;;;;;;35.85;23.83;;;;;;;;;;4999684;28;20034;-80
2022/01/16 08:55:33;;;;;;;33.70;23.13;;;;;;;;;;4995745;28;20041;-80
2022/01/16 08:57:59;;;;;;;36.67;23.52;;;;;;;;;;5028483;28;20076;-80
2022/01/16 09:00:25;;;;;;;38.45;23.88;;;;;;;;;;5012883;28;20045;-79
2022/01/16 09:02:50;;;;;;;33.10;22.45;;;;;;;;;;5047352;28;20033;-81
2022/01/16 09:05:16;;;;;;;32.28;22.92;;;;;;;;;;5015868;28;20083;-80
2022/01/16 09:07:42;;;;;;;33.22;21.30;;;;;;;;;;4994231;28;20022;-80
2022/01/16 09:10:08;;;;;;;29.88;20.33;;;;;;;;;;5015224;28;20032;-82
2022/01/16 09:12:34;;;;;;;30.48;21.45;;;;;;;;;;5035373;28;20034;-81
2022/01/16 09:15:00;;;;;;;27.88;20.45;;;;;;;;;;5020366;28;20068;-84
2022/01/16 09:17:25;;;;;;;30.17;20.10;;;;;;;;;;4998518;28;20065;-80
2022/01/16 09:19:51;;;;;;;30.08;19.17;;;;;;;;;;5016024;28;20040;-80
2022/01/16 09:22:16;;;;;;;27.67;18.65;;;;;;;;;;4982981;28;20068;-80
2022/01/16 09:24:42;;;;;;;25.55;18.58;;;;;;;;;;4982915;28;20121;-80
2022/01/16 09:27:08;;;;;;;27.98;17.42;;;;;;;;;;4999118;28;20039;-80
2022/01/16 09:29:33;;;;;;;26.75;16.85;;;;;;;;;;5014661;28;20248;-81
2022/01/16 09:31:59;;;;;;;27.67;17.27;;;;;;;;;;5046719;28;20043;-81
2022/01/16 09:34:24;;;;;;;25.23;17.52;;;;;;;;;;5026890;28;20119;-81
2022/01/16 09:36:50;;;;;;;23.73;16.42;;;;;;;;;;4998888;28;20488;-81
2022/01/16 09:39:15;;;;;;;28.92;16.75;;;;;;;;;;4998659;28;20375;-82
2022/01/16 09:41:41;;;;;;;23.65;16.23;;;;;;;;;;5031778;28;20110;-81
2022/01/16 09:44:07;;;;;;;25.05;16.45;;;;;;;;;;5047896;28;20533;-81
2022/01/16 09:46:34;;;;;;;25.15;17.58;;;;;;;;;;5030733;28;20073;-81
2022/01/16 09:48:59;;;;;;;21.40;14.88;;;;;;;;;;5030472;28;20087;-78
2022/01/16 09:51:24;;;;;;;23.50;16.08;;;;;;;;;;5014485;28;20037;-78
2022/01/16 09:53:50;;;;;;;23.48;14.48;;;;;;;;;;5011229;28;20391;-78
2022/01/16 09:56:15;;;;;;;20.65;15.13;;;;;;;;;;5014932;28;20041;-78
2022/01/16 09:58:41;;;;;;;18.67;14.02;;;;;;;;;;4997117;28;20418;-77
2022/01/16 10:01:06;;;;;;;19.80;13.80;;;;;;;;;;5013908;28;20124;-77
2022/01/16 10:03:40;;;;;;;21.27;14.38;;;;;;;;;;5018342;28;20033;-77
2022/01/16 10:06:20;;;;;;;17.23;12.98;;;;;;;;;;5018315;28;20043;-78
2022/01/16 10:08:46;;;;;;;18.92;13.73;;;;;;;;;;5034419;28;20530;-78
2022/01/16 10:11:37;;;;;;;16.42;13.13;;;;;;;;;;5034618;28;20132;-78
2022/01/16 10:14:15;;;;;;;19.48;12.35;;;;;;;;;;5018551;28;20459;-78
2022/01/16 10:16:41;;;;;;;17.65;12.65;;;;;;;;;;5004739;28;20043;-78
2022/01/16 10:19:24;;;;;;;16.40;13.35;;;;;;;;;;5017996;28;20033;-79
2022/01/16 10:21:50;;;;;;;17.90;12.27;;;;;;;;;;5018620;28;20095;-78
2022/01/16 10:24:20;;;;;;;17.88;11.30;;;;;;;;;;5014521;28;20037;-78
2022/01/16 10:26:47;;;;;;;15.40;12.02;;;;;;;;;;5014137;28;20116;-78
2022/01/16 10:29:19;;;;;;;15.73;11.63;;;;;;;;;;4998203;28;20029;-78
2022/01/16 10:31:45;;;;;;;14.88;11.70;;;;;;;;;;4998377;28;20037;-79
2022/01/16 10:34:25;;;;;;;15.25;11.65;;;;;;;;;;4998456;28;20380;-79
2022/01/16 10:36:50;;;;;;;16.85;11.52;;;;;;;;;;5030530;28;20033;-78
2022/01/16 10:39:16;;;;;;;16.10;11.30;;;;;;;;;;5030895;28;20035;-79
2022/01/16 10:41:41;;;;;;;16.27;11.20;;;;;;;;;;5030319;28;20112;-78
2022/01/16 10:44:27;;;;;;;14.40;11.27;;;;;;;;;;5030491;28;20108;-78
2022/01/16 10:46:52;;;;;;;14.95;10.68;;;;;;;;;;5046864;28;20036;-78
2022/01/16 10:49:20;;;;;;;15.02;10.45;;;;;;;;;;5014257;28;20033;-78
2022/01/16 10:52:01;;;;;;;12.95;10.25;;;;;;;;;;5030471;28;20519;-78
2022/01/16 10:54:34;;;;;;;14.40;10.43;;;;;;;;;;5014084;28;20068;-78
2022/01/16 10:57:25;;;;;;;14.38;11.10;;;;;;;;;;5029977;28;20029;-78
2022/01/16 11:00:09;;;;;;;13.93;11.40;;;;;;;;;;5012916;28;20087;-78
2022/01/16 11:02:35;;;;;;;14.70;10.18;;;;;;;;;;5045810;28;20033;-78
2022/01/16 11:05:22;;;;;;;14.13;10.80;;;;;;;;;;5013919;28;20040;-78
2022/01/16 11:07:58;;;;;;;13.55;10.35;;;;;;;;;;5014167;28;20032;-78
2022/01/16 11:10:50;;;;;;;14.75;9.80;;;;;;;;;;5014279;28;20029;-78
2022/01/16 11:13:17;;;;;;;15.00;11.05;;;;;;;;;;5012176;28;20033;-79
2022/01/16 11:15:49;;;;;;;12.00;9.77;;;;;;;;;;4997721;28;20081;-78
2022/01/16 11:18:14;;;;;;;14.27;9.87;;;;;;;;;;4997401;28;20115;-79
2022/01/16 11:20:40;;;;;;;11.07;9.02;;;;;;;;;;4997702;28;20645;-78
2022/01/16 11:25:58;;;;;;;12.85;9.13;;;;;;;;;;5016038;28;20045;-79
2022/01/16 11:28:24;;;;;;;13.02;9.45;;;;;;;;;;5013976;28;20033;-79
2022/01/16 11:30:51;;;;;;;13.88;10.75;;;;;;;;;;5013560;28;20042;-78
2022/01/16 11:33:17;;;;;;;11.20;9.25;;;;;;;;;;4997549;28;20029;-79
2022/01/16 11:36:16;;;;;;;11.38;8.40;;;;;;;;;;5013702;28;20082;-78
2022/01/16 11:38:46;;;;;;;11.93;7.88;;;;;;;;;;5005757;28;20092;-78
2022/01/16 11:41:20;;;;;;;12.73;8.50;;;;;;;;;;5029877;28;20061;-79
2022/01/16 11:43:46;;;;;;;11.63;8.00;;;;;;;;;;5012613;28;20387;-78
2022/01/16 11:46:22;;;;;;;10.73;8.63;;;;;;;;;;5030177;28;20037;-78
2022/01/16 11:48:53;;;;;;;11.00;8.45;;;;;;;;;;5013218;28;20547;-78
2022/01/16 11:51:39;;;;;;;13.20;8.67;;;;;;;;;;5063094;28;20056;-78
2022/01/16 11:54:24;;;;;;;11.88;8.40;;;;;;;;;;5029775;28;20103;-78
2022/01/16 11:56:55;;;;;;;12.15;8.73;;;;;;;;;;5014489;28;20041;-79
2022/01/16 11:59:22;;;;;;;11.50;8.40;;;;;;;;;;5033932;28;20033;-79
2022/01/16 12:02:01;;;;;;;12.50;8.48;;;;;;;;;;5049803;28;20495;-78
2022/01/16 12:04:29;;;;;;;10.63;8.23;;;;;;;;;;5018149;28;20041;-78
2022/01/16 12:07:03;;;;;;;11.05;7.38;;;;;;;;;;5034978;28;20045;-79
2022/01/16 12:12:12;;;;;;;11.88;9.45;;;;;;;;;;5032410;28;20554;-78
2022/01/16 12:14:56;;;;;;;10.57;8.23;;;;;;;;;;5034425;28;20124;-79
2022/01/16 12:20:22;;;;;;;11.43;8.25;;;;;;;;;;5017895;28;20069;-78
2022/01/16 12:22:52;;;;;;;11.13;8.68;;;;;;;;;;5034167;28;20103;-78
2022/01/16 12:25:24;;;;;;;9.80;7.60;;;;;;;;;;5033070;28;20034;-79
2022/01/16 12:27:53;;;;;;;12.45;9.40;;;;;;;;;;5034326;28;20029;-80
2022/01/16 12:30:38;;;;;;;10.82;8.35;;;;;;;;;;5033314;28;20037;-80
2022/01/16 12:33:09;;;;;;;9.45;7.57;;;;;;;;;;5032713;28;20518;-80
2022/01/16 12:35:54;;;;;;;11.10;7.88;;;;;;;;;;5017084;28;20076;-80
2022/01/16 12:38:25;;;;;;;11.38;7.97;;;;;;;;;;5065819;28;20030;-80
2022/01/16 12:40:59;;;;;;;10.45;7.47;;;;;;;;;;5033222;28;20120;-79
2022/01/16 12:43:33;;;;;;;12.75;8.10;;;;;;;;;;5048434;28;20030;-79
2022/01/16 12:45:59;;;;;;;9.57;7.80;;;;;;;;;;5033046;28;20142;-79
2022/01/16 12:48:25;;;;;;;9.73;6.88;;;;;;;;;;5049197;28;20104;-79
2022/01/16 12:50:51;;;;;;;9.85;6.68;;;;;;;;;;5016328;28;20037;-79
2022/01/16 12:53:53;;;;;;;10.98;7.47;;;;;;;;;;5032305;28;20037;-79
2022/01/16 12:56:28;;;;;;;9.05;6.90;;;;;;;;;;4995061;28;20492;-78
2022/01/16 12:59:09;;;;;;;9.25;7.20;;;;;;;;;;5013018;28;20135;-78
2022/01/16 13:01:36;;;;;;;9.07;6.82;;;;;;;;;;5032113;28;20030;-79
2022/01/16 13:04:02;;;;;;;9.63;7.40;;;;;;;;;;4999802;28;20030;-78
2022/01/16 13:06:28;;;;;;;8.68;7.10;;;;;;;;;;5015635;28;20034;-78
2022/01/16 13:09:04;;;;;;;10.27;7.25;;;;;;;;;;5001672;28;20060;-78
2022/01/16 13:11:32;;;;;;;9.15;7.13;;;;;;;;;;5016371;28;20052;-78
2022/01/16 13:13:58;;;;;;;9.18;7.03;;;;;;;;;;5015649;28;20508;-79
2022/01/16 13:16:25;;;;;;;9.23;6.95;;;;;;;;;;5015841;28;20067;-78
2022/01/16 13:19:01;;;;;;;7.28;5.78;;;;;;;;;;5015582;28;20096;-78
2022/01/16 13:21:35;;;;;;;7.90;6.05;;;;;;;;;;4999127;28;20033;-78
2022/01/16 13:24:01;;;;;;;8.60;6.32;;;;;;;;;;5016837;28;20431;-78
2022/01/16 13:26:27;;;;;;;7.35;5.53;;;;;;;;;;4999105;28;20037;-78
2022/01/16 13:29:06;;;;;;;8.57;6.50;;;;;;;;;;4999038;28;20033;-78
2022/01/16 13:31:34;;;;;;;8.15;6.47;;;;;;;;;;4999078;28;20400;-79
2022/01/16 13:34:38;;;;;;;7.75;5.75;;;;;;;;;;4999154;28;20495;-79
2022/01/16 13:37:06;;;;;;;8.98;6.60;;;;;;;;;;5009016;28;20045;-78
2022/01/16 13:40:08;;;;;;;8.02;6.03;;;;;;;;;;5031737;28;20033;-78
2022/01/16 13:45:51;;;;;;;7.65;5.95;;;;;;;;;;5064344;28;20506;-79
2022/01/16 13:48:20;;;;;;;8.20;5.97;;;;;;;;;;4982988;28;20053;-78
2022/01/16 13:50:47;;;;;;;7.45;5.28;;;;;;;;;;5000586;28;20041;-78
2022/01/16 13:53:12;;;;;;;7.40;5.90;;;;;;;;;;5048162;28;20112;-78
2022/01/16 13:55:52;;;;;;;8.05;5.57;;;;;;;;;;5064446;28;20125;-78
2022/01/16 13:58:20;;;;;;;7.10;5.40;;;;;;;;;;5043705;28;20481;-78
2022/01/16 14:00:47;;;;;;;7.47;4.97;;;;;;;;;;4995408;28;20392;-78
2022/01/16 14:03:23;;;;;;;7.82;5.80;;;;;;;;;;5031248;28;20037;-78
2022/01/16 14:05:51;;;;;;;7.75;6.20;;;;;;;;;;5034542;28;20124;-78
2022/01/16 14:08:21;;;;;;;6.65;5.13;;;;;;;;;;5051154;28;20092;-78
2022/01/16 14:10:46;;;;;;;6.95;5.25;;;;;;;;;;5018098;28;20029;-78
2022/01/16 14:13:12;;;;;;;8.65;5.50;;;;;;;;;;5034766;28;20125;-78
2022/01/16 14:15:38;;;;;;;8.15;5.63;;;;;;;;;;5022727;28;20044;-78
2022/01/16 14:18:13;;;;;;;9.20;5.20;;;;;;;;;;5013148;28;20030;-78
2022/01/16 14:23:33;;;;;;;6.90;5.50;;;;;;;;;;4978778;28;20062;-79
2022/01/16 14:25:59;;;;;;;10.02;6.35;;;;;;;;;;5030527;28;20060;-78
2022/01/16 14:28:24;;;;;;;11.50;5.90;;;;;;;;;;5014600;28;20033;-78
2022/01/16 14:30:50;;;;;;;10.07;5.68;;;;;;;;;;5014269;28;20037;-79
2022/01/16 14:33:15;;;;;;;7.57;5.40;;;;;;;;;;5029963;28;20112;-78
2022/01/16 14:35:40;;;;;;;12.52;5.75;;;;;;;;;;5014039;28;20029;-80
2022/01/16 14:38:06;;;;;;;9.40;5.45;;;;;;;;;;4997842;28;20038;-81
2022/01/16 14:40:32;;;;;;;9.80;6.28;;;;;;;;;;4997896;28;20387;-84
2022/01/16 14:43:03;;;;;;;9.20;6.32;;;;;;;;;;5048370;28;20041;-88
2022/01/16 14:45:29;;;;;;;9.95;6.65;;;;;;;;;;5031612;28;20021;-88
2022/01/16 14:47:56;;;;;;;12.40;6.50;;;;;;;;;;5048101;28;20037;-88
2022/01/16 14:50:24;;;;;;;9.30;7.05;;;;;;;;;;5015051;28;20033;-89
2022/01/16 14:52:51;;;;;;;9.82;6.00;;;;;;;;;;5024722;28;20045;-90
2022/01/16 14:55:16;;;;;;;11.45;6.13;;;;;;;;;;5014125;28;20025;-80
2022/01/16 14:57:43;;;;;;;11.63;6.55;;;;;;;;;;5026860;28;20084;-87
2022/01/16 15:00:09;;;;;;;8.95;6.15;;;;;;;;;;4981529;28;20036;-86
2022/01/16 15:02:36;;;;;;;12.73;6.75;;;;;;;;;;5030113;28;20388;-83
2022/01/16 15:05:02;;;;;;;9.02;6.28;;;;;;;;;;4982193;28;20091;-78
2022/01/16 15:07:27;;;;;;;11.40;6.43;;;;;;;;;;5013872;28;20411;-79
2022/01/16 15:09:53;;;;;;;8.90;7.15;;;;;;;;;;4995448;28;20045;-80
2022/01/16 15:12:19;;;;;;;9.23;6.05;;;;;;;;;;5013378;28;20034;-80
2022/01/16 15:14:45;;;;;;;9.13;6.65;;;;;;;;;;4997355;28;20073;-80
2022/01/16 15:17:10;;;;;;;10.90;6.38;;;;;;;;;;4996823;28;20034;-75
2022/01/16 15:19:37;;;;;;;9.85;6.70;;;;;;;;;;5014129;28;20497;-77
2022/01/16 15:24:37;;;;;;;11.07;5.90;;;;;;;;;;5030101;28;20026;-77
2022/01/16 15:27:03;;;;;;;9.95;6.18;;;;;;;;;;5013345;28;20090;-77
2022/01/16 15:29:29;;;;;;;12.55;6.25;;;;;;;;;;5014146;28;20102;-77
2022/01/16 15:31:55;;;;;;;9.18;5.43;;;;;;;;;;5050256;28;20523;-77
2022/01/16 15:34:20;;;;;;;9.85;5.65;;;;;;;;;;5063593;28;20056;-77
2022/01/16 15:36:46;;;;;;;8.80;5.45;;;;;;;;;;5034159;28;20075;-77
2022/01/16 15:39:11;;;;;;;8.35;5.65;;;;;;;;;;5000696;28;20475;-77
2022/01/16 15:41:39;;;;;;;9.50;6.38;;;;;;;;;;5014251;28;20055;-77
2022/01/16 15:44:04;;;;;;;10.73;5.60;;;;;;;;;;4999005;28;20507;-77